sensor_id;sensor_type;location;lat;lon;timestamp;pressure;altitude;pressure_sealevel;temperature;humidity
12949;BME280;6539;49.476;8.484;2022-11-03T00:02:14;100944.50;;;13.26;67.87
12949;BME280;6539;49.476;8.484;2022-11-03T00:04:44;100944.84;;;13.32;67.61
12949;BME280;6539;49.476;8.484;2022-11-03T00:07:10;100944.47;;;13.30;67.35
12949;BME280;6539;49.476;8.484;2022-11-03T00:09:35;100936.63;;;13.28;66.93
12949;BME280;6539;49.476;8.484;2022-11-03T00:12:06;100944.50;;;13.26;67.07
12949;BME280;6539;49.476;8.484;2022-11-03T00:14:34;100936.63;;;13.28;67.20
12949;BME280;6539;49.476;8.484;2022-11-03T00:17:03;100939.78;;;13.27;66.70
12949;BME280;6539;49.476;8.484;2022-11-03T00:19:28;100939.88;;;13.20;67.10
12949;BME280;6539;49.476;8.484;2022-11-03T00:21:57;100922.97;;;13.14;67.49
12949;BME280;6539;49.476;8.484;2022-11-03T00:24:25;100924.94;;;13.14;67.29
12949;BME280;6539;49.476;8.484;2022-11-03T00:26:51;100923.34;;;13.16;67.29
12949;BME280;6539;49.476;8.484;2022-11-03T00:29:20;100924.88;;;13.21;67.47
12949;BME280;6539;49.476;8.484;2022-11-03T00:31:46;100921.75;;;13.19;67.46
12949;BME280;6539;49.476;8.484;2022-11-03T00:34:14;100908.38;;;13.17;67.04
12949;BME280;6539;49.476;8.484;2022-11-03T00:36:42;100908.03;;;13.12;66.75
12949;BME280;6539;49.476;8.484;2022-11-03T00:39:09;100897.84;;;13.05;67.16
12949;BME280;6539;49.476;8.484;2022-11-03T00:41:36;100897.13;;;12.97;67.23
12949;BME280;6539;49.476;8.484;2022-11-03T00:44:02;100888.50;;;12.95;67.36
12949;BME280;6539;49.476;8.484;2022-11-03T00:46:30;100884.53;;;12.96;67.49
12949;BME280;6539;49.476;8.484;2022-11-03T00:48:59;100886.91;;;12.94;67.32
12949;BME280;6539;49.476;8.484;2022-11-03T00:51:28;100876.31;;;12.93;67.50
12949;BME280;6539;49.476;8.484;2022-11-03T00:54:03;100874.34;;;12.90;67.75
12949;BME280;6539;49.476;8.484;2022-11-03T00:56:33;100877.84;;;12.94;67.64
12949;BME280;6539;49.476;8.484;2022-11-03T00:59:01;100886.53;;;12.92;67.46
12949;BME280;6539;49.476;8.484;2022-11-03T01:01:40;100886.59;;;12.89;67.74
12949;BME280;6539;49.476;8.484;2022-11-03T01:04:09;100884.19;;;12.91;67.74
12949;BME280;6539;49.476;8.484;2022-11-03T01:06:57;100886.59;;;12.89;67.89
12949;BME280;6539;49.476;8.484;2022-11-03T01:17:17;100861.53;;;12.76;68.19
12949;BME280;6539;49.476;8.484;2022-11-03T01:19:48;100868.59;;;12.77;68.08
12949;BME280;6539;49.476;8.484;2022-11-03T01:22:18;100868.56;;;12.81;68.04
12949;BME280;6539;49.476;8.484;2022-11-03T01:24:44;100869.75;;;12.80;67.82
12949;BME280;6539;49.476;8.484;2022-11-03T01:27:18;100873.34;;;12.73;68.15
12949;BME280;6539;49.476;8.484;2022-11-03T01:29:45;100864.66;;;12.75;68.10
12949;BME280;6539;49.476;8.484;2022-11-03T01:32:15;100872.56;;;12.76;68.31
12949;BME280;6539;49.476;8.484;2022-11-03T01:34:44;100865.41;;;12.82;68.01
12949;BME280;6539;49.476;8.484;2022-11-03T01:37:12;100866.13;;;12.86;68.06
12949;BME280;6539;49.476;8.484;2022-11-03T01:39:38;100868.47;;;12.88;67.74
12949;BME280;6539;49.476;8.484;2022-11-03T01:42:03;100852.78;;;12.85;67.66
12949;BME280;6539;49.476;8.484;2022-11-03T01:44:33;100853.53;;;12.85;67.78
12949;BME280;6539;49.476;8.484;2022-11-03T01:47:25;100849.28;;;12.81;67.57
12949;BME280;6539;49.476;8.484;2022-11-03T01:49:59;100844.56;;;12.78;67.99
12949;BME280;6539;49.476;8.484;2022-11-03T01:52:34;100841.81;;;12.78;67.33
12949;BME280;6539;49.476;8.484;2022-11-03T01:55:09;100845.38;;;12.75;67.43
12949;BME280;6539;49.476;8.484;2022-11-03T01:57:55;100834.03;;;12.69;68.12
12949;BME280;6539;49.476;8.484;2022-11-03T02:00:23;100829.69;;;12.72;68.28
12949;BME280;6539;49.476;8.484;2022-11-03T02:02:50;100826.94;;;12.72;68.07
12949;BME280;6539;49.476;8.484;2022-11-03T02:05:21;100827.91;;;12.55;68.51
12949;BME280;6539;49.476;8.484;2022-11-03T02:08:43;100817.25;;;12.53;68.78
12949;BME280;6539;49.476;8.484;2022-11-03T02:11:14;100813.66;;;12.60;68.76
12949;BME280;6539;49.476;8.484;2022-11-03T02:13:58;100806.97;;;12.61;68.66
12949;BME280;6539;49.476;8.484;2022-11-03T02:16:30;100804.97;;;12.65;68.88
12949;BME280;6539;49.476;8.484;2022-11-03T02:18:57;100804.97;;;12.65;68.41
12949;BME280;6539;49.476;8.484;2022-11-03T02:24:36;100798.91;;;12.77;68.18
12949;BME280;6539;49.476;8.484;2022-11-03T02:27:04;100789.09;;;12.76;68.11
12949;BME280;6539;49.476;8.484;2022-11-03T02:29:30;100789.78;;;12.83;67.51
12949;BME280;6539;49.476;8.484;2022-11-03T02:32:27;100778.34;;;12.88;67.40
12949;BME280;6539;49.476;8.484;2022-11-03T02:35:16;100776.81;;;12.84;67.32
12949;BME280;6539;49.476;8.484;2022-11-03T02:37:54;100774.88;;;12.81;67.13
12949;BME280;6539;49.476;8.484;2022-11-03T02:40:32;100769.03;;;12.75;67.80
12949;BME280;6539;49.476;8.484;2022-11-03T02:43:03;100770.19;;;12.78;67.54
12949;BME280;6539;49.476;8.484;2022-11-03T02:45:33;100766.19;;;12.82;67.59
12949;BME280;6539;49.476;8.484;2022-11-03T02:48:02;100755.63;;;12.77;67.65
12949;BME280;6539;49.476;8.484;2022-11-03T02:50:33;100750.47;;;12.79;67.59
12949;BME280;6539;49.476;8.484;2022-11-03T02:53:01;100745.81;;;12.76;67.88
12949;BME280;6539;49.476;8.484;2022-11-03T02:56:06;100740.31;;;12.73;68.15
12949;BME280;6539;49.476;8.484;2022-11-03T03:01:48;100733.63;;;12.74;68.14
12949;BME280;6539;49.476;8.484;2022-11-03T03:04:27;100726.59;;;12.69;68.34
12949;BME280;6539;49.476;8.484;2022-11-03T03:07:02;100724.16;;;12.75;68.20
12949;BME280;6539;49.476;8.484;2022-11-03T03:09:42;100715.72;;;12.59;68.35
12949;BME280;6539;49.476;8.484;2022-11-03T03:12:16;100717.59;;;12.65;68.46
12949;BME280;6539;49.476;8.484;2022-11-03T03:14:45;100725.03;;;12.68;68.38
12949;BME280;6539;49.476;8.484;2022-11-03T03:17:18;100714.75;;;12.72;68.57
12949;BME280;6539;49.476;8.484;2022-11-03T03:20:11;100720.69;;;12.71;68.31
12949;BME280;6539;49.476;8.484;2022-11-03T03:22:54;100711.59;;;12.74;68.39
12949;BME280;6539;49.476;8.484;2022-11-03T03:25:35;100704.94;;;12.71;68.44
12949;BME280;6539;49.476;8.484;2022-11-03T03:28:18;100703.84;;;12.62;68.46
12949;BME280;6539;49.476;8.484;2022-11-03T03:30:47;100699.13;;;12.66;68.63
12949;BME280;6539;49.476;8.484;2022-11-03T03:33:16;100693.25;;;12.60;69.20
12949;BME280;6539;49.476;8.484;2022-11-03T03:35:49;100687.69;;;12.64;68.70
12949;BME280;6539;49.476;8.484;2022-11-03T03:38:35;100687.69;;;12.64;68.70
12949;BME280;6539;49.476;8.484;2022-11-03T03:41:07;100684.88;;;12.71;68.48
12949;BME280;6539;49.476;8.484;2022-11-03T03:43:38;100676.69;;;12.64;68.50
12949;BME280;6539;49.476;8.484;2022-11-03T03:46:09;100673.91;;;12.67;68.48
12949;BME280;6539;49.476;8.484;2022-11-03T03:48:38;100671.97;;;12.64;68.79
12949;BME280;6539;49.476;8.484;2022-11-03T03:51:05;100674.28;;;12.69;68.67
12949;BME280;6539;49.476;8.484;2022-11-03T03:53:32;100680.19;;;12.68;68.96
12949;BME280;6539;49.476;8.484;2022-11-03T03:56:00;100665.28;;;12.65;68.54
12949;BME280;6539;49.476;8.484;2022-11-03T03:58:26;100657.78;;;12.66;68.69
12949;BME280;6539;49.476;8.484;2022-11-03T04:00:53;100661.69;;;12.68;68.49
12949;BME280;6539;49.476;8.484;2022-11-03T04:03:24;100663.19;;;12.73;68.57
12949;BME280;6539;49.476;8.484;2022-11-03T04:05:52;100665.50;;;12.78;68.25
12949;BME280;6539;49.476;8.484;2022-11-03T04:08:18;100655.28;;;12.75;68.15
12949;BME280;6539;49.476;8.484;2022-11-03T04:10:47;100654.47;;;12.78;68.27
12949;BME280;6539;49.476;8.484;2022-11-03T04:13:35;100655.28;;;12.75;68.03
12949;BME280;6539;49.476;8.484;2022-11-03T04:16:19;100645.94;;;12.69;68.48
12949;BME280;6539;49.476;8.484;2022-11-03T04:19:04;100649.97;;;12.61;68.73
12949;BME280;6539;49.476;8.484;2022-11-03T04:21:48;100647.53;;;12.66;68.77
12949;BME280;6539;49.476;8.484;2022-11-03T04:24:35;100651.44;;;12.69;68.61
12949;BME280;6539;49.476;8.484;2022-11-03T04:27:31;100647.88;;;12.72;68.27
12949;BME280;6539;49.476;8.484;2022-11-03T04:30:19;100645.56;;;12.67;68.54
12949;BME280;6539;49.476;8.484;2022-11-03T04:32:52;100643.25;;;12.62;68.79
12949;BME280;6539;49.476;8.484;2022-11-03T04:35:24;100632.34;;;12.55;68.88
12949;BME280;6539;49.476;8.484;2022-11-03T04:37:57;100634.75;;;12.53;68.71
12949;BME280;6539;49.476;8.484;2022-11-03T04:40:23;100632.00;;;12.53;68.90
12949;BME280;6539;49.476;8.484;2022-11-03T04:42:52;100628.81;;;12.54;68.87
12949;BME280;6539;49.476;8.484;2022-11-03T04:45:23;100623.72;;;12.53;68.82
12949;BME280;6539;49.476;8.484;2022-11-03T04:47:54;100627.66;;;12.52;69.13
12949;BME280;6539;49.476;8.484;2022-11-03T04:50:23;100630.06;;;12.50;69.11
12949;BME280;6539;49.476;8.484;2022-11-03T04:52:58;100625.84;;;12.42;69.61
12949;BME280;6539;49.476;8.484;2022-11-03T04:55:26;100613.59;;;12.43;69.27
12949;BME280;6539;49.476;8.484;2022-11-03T04:58:09;100621.13;;;12.39;69.54
12949;BME280;6539;49.476;8.484;2022-11-03T05:00:37;100621.88;;;12.43;69.42
12949;BME280;6539;49.476;8.484;2022-11-03T05:03:03;100625.03;;;12.41;69.64
12949;BME280;6539;49.476;8.484;2022-11-03T05:05:29;100620.41;;;12.35;70.03
12949;BME280;6539;49.476;8.484;2022-11-03T05:07:57;100599.91;;;12.39;69.85
12949;BME280;6539;49.476;8.484;2022-11-03T05:10:28;100607.78;;;12.37;69.92
12949;BME280;6539;49.476;8.484;2022-11-03T05:12:58;100608.53;;;12.41;70.01
12949;BME280;6539;49.476;8.484;2022-11-03T05:15:36;100602.22;;;12.41;70.12
12949;BME280;6539;49.476;8.484;2022-11-03T05:18:36;100587.72;;;12.37;70.33
12949;BME280;6539;49.476;8.484;2022-11-03T05:21:07;100582.97;;;12.41;70.31
12949;BME280;6539;49.476;8.484;2022-11-03T05:23:46;100578.66;;;12.40;70.21
12949;BME280;6539;49.476;8.484;2022-11-03T05:26:29;100580.94;;;12.45;70.14
12949;BME280;6539;49.476;8.484;2022-11-03T05:29:08;100578.19;;;12.45;70.02
12949;BME280;6539;49.476;8.484;2022-11-03T05:31:36;100580.94;;;12.45;69.30
12949;BME280;6539;49.476;8.484;2022-11-03T05:34:34;100576.63;;;12.44;69.30
12949;BME280;6539;49.476;8.484;2022-11-03T05:39:45;100570.78;;;12.38;69.29
12949;BME280;6539;49.476;8.484;2022-11-03T05:42:38;100565.28;;;12.38;69.81
12949;BME280;6539;49.476;8.484;2022-11-03T05:45:25;100560.50;;;12.42;69.73
12949;BME280;6539;49.476;8.484;2022-11-03T05:47:55;100561.34;;;12.39;69.79
12949;BME280;6539;49.476;8.484;2022-11-03T05:50:25;100553.88;;;12.40;70.05
12949;BME280;6539;49.476;8.484;2022-11-03T05:53:02;100552.66;;;12.44;69.95
12949;BME280;6539;49.476;8.484;2022-11-03T05:55:34;100535.69;;;12.46;69.78
12949;BME280;6539;49.476;8.484;2022-11-03T05:58:35;100539.25;;;12.46;69.72
12949;BME280;6539;49.476;8.484;2022-11-03T06:01:31;100533.72;;;12.46;69.51
12949;BME280;6539;49.476;8.484;2022-11-03T06:04:31;100527.44;;;12.46;69.27
12949;BME280;6539;49.476;8.484;2022-11-03T06:07:06;100523.59;;;12.40;69.87
12949;BME280;6539;49.476;8.484;2022-11-03T06:09:36;100520.00;;;12.43;69.90
12949;BME280;6539;49.476;8.484;2022-11-03T06:12:05;100516.09;;;12.40;69.46
12949;BME280;6539;49.476;8.484;2022-11-03T06:14:35;100517.34;;;12.36;70.04
12949;BME280;6539;49.476;8.484;2022-11-03T06:17:15;100512.31;;;12.57;74.07
12949;BME280;6539;49.476;8.484;2022-11-03T06:19:46;100522.88;;;12.62;71.78
12949;BME280;6539;49.476;8.484;2022-11-03T06:22:30;100520.06;;;12.66;72.07
12949;BME280;6539;49.476;8.484;2022-11-03T06:25:25;100527.69;;;12.81;74.20
12949;BME280;6539;49.476;8.484;2022-11-03T06:27:55;100531.38;;;12.98;77.54
12949;BME280;6539;49.476;8.484;2022-11-03T06:30:35;100529.34;;;13.02;76.07
12949;BME280;6539;49.476;8.484;2022-11-03T06:35:42;100510.09;;;12.98;70.63
12949;BME280;6539;49.476;8.484;2022-11-03T06:38:18;100504.75;;;12.88;70.31
12949;BME280;6539;49.476;8.484;2022-11-03T06:40:44;100499.78;;;12.79;70.41
12949;BME280;6539;49.476;8.484;2022-11-03T06:43:19;100507.31;;;12.75;70.01
12949;BME280;6539;49.476;8.484;2022-11-03T06:45:56;100498.94;;;12.59;70.61
12949;BME280;6539;49.476;8.484;2022-11-03T06:48:25;100491.06;;;12.58;70.53
12949;BME280;6539;49.476;8.484;2022-11-03T06:50:53;100499.66;;;12.63;70.56
12949;BME280;6539;49.476;8.484;2022-11-03T06:53:24;100487.84;;;12.63;70.79
12949;BME280;6539;49.476;8.484;2022-11-03T06:55:51;100496.56;;;12.58;71.45
12949;BME280;6539;49.476;8.484;2022-11-03T06:58:34;100491.69;;;12.69;70.98
12949;BME280;6539;49.476;8.484;2022-11-03T07:03:43;100481.44;;;12.69;71.12
12949;BME280;6539;49.476;8.484;2022-11-03T07:09:22;100458.44;;;12.79;71.60
12949;BME280;6539;49.476;8.484;2022-11-03T07:11:54;100455.31;;;12.81;71.03
12949;BME280;6539;49.476;8.484;2022-11-03T07:14:28;100466.97;;;12.88;70.73
12949;BME280;6539;49.476;8.484;2022-11-03T07:17:05;100473.50;;;12.98;71.42
12949;BME280;6539;49.476;8.484;2022-11-03T07:19:42;100473.97;;;12.93;69.56
12949;BME280;6539;49.476;8.484;2022-11-03T07:22:18;100475.22;;;12.88;69.42
12949;BME280;6539;49.476;8.484;2022-11-03T07:24:49;100466.50;;;12.93;70.18
12949;BME280;6539;49.476;8.484;2022-11-03T07:27:21;100465.59;;;13.00;70.16
12949;BME280;6539;49.476;8.484;2022-11-03T07:29:58;100462.72;;;13.07;69.76
12949;BME280;6539;49.476;8.484;2022-11-03T07:32:30;100467.66;;;13.19;69.09
12949;BME280;6539;49.476;8.484;2022-11-03T07:37:48;100451.66;;;13.11;68.79
12949;BME280;6539;49.476;8.484;2022-11-03T07:40:23;100452.91;;;13.06;69.34
12949;BME280;6539;49.476;8.484;2022-11-03T07:43:01;100442.59;;;13.10;69.33
12949;BME280;6539;49.476;8.484;2022-11-03T07:45:45;100439.78;;;13.14;68.81
12949;BME280;6539;49.476;8.484;2022-11-03T07:48:36;100430.44;;;13.08;69.16
12949;BME280;6539;49.476;8.484;2022-11-03T07:51:27;100430.75;;;13.13;69.30
12949;BME280;6539;49.476;8.484;2022-11-03T07:54:24;100420.00;;;13.19;69.08
12949;BME280;6539;49.476;8.484;2022-11-03T07:57:03;100415.50;;;13.28;69.25
12949;BME280;6539;49.476;8.484;2022-11-03T07:59:38;100400.84;;;13.31;68.65
12949;BME280;6539;49.476;8.484;2022-11-03T08:02:30;100388.41;;;13.23;68.33
12949;BME280;6539;49.476;8.484;2022-11-03T08:04:56;100385.22;;;13.25;68.21
12949;BME280;6539;49.476;8.484;2022-11-03T08:07:25;100389.47;;;13.29;68.14
12949;BME280;6539;49.476;8.484;2022-11-03T08:09:55;100393.72;;;13.34;68.28
12949;BME280;6539;49.476;8.484;2022-11-03T08:12:21;100394.34;;;13.41;67.60
12949;BME280;6539;49.476;8.484;2022-11-03T08:14:47;100380.78;;;13.50;67.11
12949;BME280;6539;49.476;8.484;2022-11-03T08:17:13;100373.75;;;13.65;66.81
12949;BME280;6539;49.476;8.484;2022-11-03T08:19:40;100360.47;;;13.96;66.71
12949;BME280;6539;49.476;8.484;2022-11-03T08:22:06;100360.03;;;14.33;66.45
12949;BME280;6539;49.476;8.484;2022-11-03T08:24:34;100355.25;;;14.66;63.90
12949;BME280;6539;49.476;8.484;2022-11-03T08:27:02;100360.47;;;15.21;63.37
12949;BME280;6539;49.476;8.484;2022-11-03T08:29:30;100353.13;;;15.97;60.38
12949;BME280;6539;49.476;8.484;2022-11-03T08:31:59;100365.91;;;16.80;55.32
12949;BME280;6539;49.476;8.484;2022-11-03T08:34:27;100362.66;;;17.37;54.06
12949;BME280;6539;49.476;8.484;2022-11-03T08:36:53;100367.81;;;18.00;52.81
12949;BME280;6539;49.476;8.484;2022-11-03T08:39:23;100371.94;;;18.26;50.25
12949;BME280;6539;49.476;8.484;2022-11-03T08:41:51;100364.69;;;18.86;49.04
12949;BME280;6539;49.476;8.484;2022-11-03T08:44:16;100361.75;;;18.99;47.97
12949;BME280;6539;49.476;8.484;2022-11-03T08:46:44;100362.38;;;19.12;47.77
12949;BME280;6539;49.476;8.484;2022-11-03T08:49:10;100371.00;;;18.78;47.78
12949;BME280;6539;49.476;8.484;2022-11-03T08:51:36;100360.66;;;18.96;47.79
12949;BME280;6539;49.476;8.484;2022-11-03T08:54:04;100353.72;;;19.10;46.74
12949;BME280;6539;49.476;8.484;2022-11-03T08:56:29;100347.53;;;18.88;47.52
12949;BME280;6539;49.476;8.484;2022-11-03T08:58:55;100337.16;;;18.88;47.56
12949;BME280;6539;49.476;8.484;2022-11-03T09:01:23;100337.31;;;18.67;48.54
12949;BME280;6539;49.476;8.484;2022-11-03T09:03:49;100335.75;;;19.29;49.00
12949;BME280;6539;49.476;8.484;2022-11-03T09:06:17;100333.50;;;19.78;45.91
12949;BME280;6539;49.476;8.484;2022-11-03T09:08:42;100340.97;;;19.63;44.86
12949;BME280;6539;49.476;8.484;2022-11-03T09:11:11;100334.81;;;19.32;45.70
12949;BME280;6539;49.476;8.484;2022-11-03T09:13:36;100334.84;;;18.96;46.93
12949;BME280;6539;49.476;8.484;2022-11-03T09:16:02;100331.34;;;18.28;48.39
12949;BME280;6539;49.476;8.484;2022-11-03T09:18:30;100327.44;;;17.77;49.76
12949;BME280;6539;49.476;8.484;2022-11-03T09:21:00;100327.03;;;17.35;51.11
12949;BME280;6539;49.476;8.484;2022-11-03T09:23:31;100325.63;;;17.09;52.24
12949;BME280;6539;49.476;8.484;2022-11-03T09:25:57;100323.13;;;16.68;53.52
12949;BME280;6539;49.476;8.484;2022-11-03T09:28:23;100321.16;;;16.43;54.14
12949;BME280;6539;49.476;8.484;2022-11-03T09:30:51;100309.09;;;16.37;54.28
12949;BME280;6539;49.476;8.484;2022-11-03T09:33:19;100306.03;;;16.10;55.17
12949;BME280;6539;49.476;8.484;2022-11-03T09:35:45;100299.63;;;15.88;56.08
12949;BME280;6539;49.476;8.484;2022-11-03T09:38:10;100291.78;;;15.74;56.82
12949;BME280;6539;49.476;8.484;2022-11-03T09:40:38;100283.56;;;15.70;57.30
12949;BME280;6539;49.476;8.484;2022-11-03T09:43:09;100286.22;;;15.61;57.58
12949;BME280;6539;49.476;8.484;2022-11-03T09:45:40;100280.78;;;15.58;57.75
12949;BME280;6539;49.476;8.484;2022-11-03T09:48:11;100277.16;;;15.48;58.29
12949;BME280;6539;49.476;8.484;2022-11-03T09:50:38;100267.91;;;15.39;58.17
12949;BME280;6539;49.476;8.484;2022-11-03T09:53:04;100264.69;;;15.27;58.55
12949;BME280;6539;49.476;8.484;2022-11-03T09:55:33;100270.97;;;15.15;59.11
12949;BME280;6539;49.476;8.484;2022-11-03T09:58:01;100265.19;;;15.10;59.35
12949;BME280;6539;49.476;8.484;2022-11-03T10:00:34;100259.06;;;14.90;60.30
12949;BME280;6539;49.476;8.484;2022-11-03T10:03:02;100246.16;;;14.99;60.10
12949;BME280;6539;49.476;8.484;2022-11-03T10:05:32;100233.66;;;15.07;59.96
12949;BME280;6539;49.476;8.484;2022-11-03T10:08:03;100243.94;;;14.94;60.41
12949;BME280;6539;49.476;8.484;2022-11-03T10:10:31;100247.03;;;14.96;60.31
12949;BME280;6539;49.476;8.484;2022-11-03T10:13:00;100236.66;;;15.00;60.48
12949;BME280;6539;49.476;8.484;2022-11-03T10:15:28;100223.69;;;14.97;60.98
12949;BME280;6539;49.476;8.484;2022-11-03T10:17:55;100221.09;;;15.19;60.38
12949;BME280;6539;49.476;8.484;2022-11-03T10:20:23;100219.97;;;15.29;59.68
12949;BME280;6539;49.476;8.484;2022-11-03T10:22:53;100225.44;;;15.33;59.85
12949;BME280;6539;49.476;8.484;2022-11-03T10:28:23;100216.28;;;15.48;58.90
12949;BME280;6539;49.476;8.484;2022-11-03T10:31:16;100203.97;;;15.37;59.27
12949;BME280;6539;49.476;8.484;2022-11-03T10:33:54;100191.44;;;15.32;59.44
12949;BME280;6539;49.476;8.484;2022-11-03T10:36:27;100188.22;;;15.34;59.62
12949;BME280;6539;49.476;8.484;2022-11-03T10:38:54;100189.91;;;15.31;59.62
12949;BME280;6539;49.476;8.484;2022-11-03T10:41:31;100179.59;;;15.32;59.51
12949;BME280;6539;49.476;8.484;2022-11-03T10:44:16;100180.50;;;15.16;60.23
12949;BME280;6539;49.476;8.484;2022-11-03T10:47:03;100171.53;;;15.24;60.36
12949;BME280;6539;49.476;8.484;2022-11-03T10:49:36;100166.88;;;15.34;60.24
12949;BME280;6539;49.476;8.484;2022-11-03T10:52:24;100162.13;;;15.35;60.21
12949;BME280;6539;49.476;8.484;2022-11-03T10:54:57;100153.38;;;15.36;59.48
12949;BME280;6539;49.476;8.484;2022-11-03T10:57:25;100150.09;;;15.16;60.32
12949;BME280;6539;49.476;8.484;2022-11-03T10:59:52;100136.81;;;15.11;60.61
12949;BME280;6539;49.476;8.484;2022-11-03T11:02:22;100139.31;;;15.05;61.08
12949;BME280;6539;49.476;8.484;2022-11-03T11:05:01;100139.56;;;14.98;61.28
12949;BME280;6539;49.476;8.484;2022-11-03T11:07:40;100132.69;;;14.90;61.91
12949;BME280;6539;49.476;8.484;2022-11-03T11:10:30;100122.53;;;14.87;62.08
12949;BME280;6539;49.476;8.484;2022-11-03T11:13:23;100112.91;;;14.79;62.52
12949;BME280;6539;49.476;8.484;2022-11-03T11:15:59;100118.66;;;14.85;62.37
12949;BME280;6539;49.476;8.484;2022-11-03T11:21:01;100095.75;;;14.59;63.51
12949;BME280;6539;49.476;8.484;2022-11-03T11:23:47;100092.13;;;14.75;63.22
12949;BME280;6539;49.476;8.484;2022-11-03T11:31:42;100107.59;;;14.72;63.12
12949;BME280;6539;49.476;8.484;2022-11-03T11:42:15;100094.75;;;14.78;63.52
12949;BME280;6539;49.476;8.484;2022-11-03T11:44:49;100095.09;;;14.80;63.36
12949;BME280;6539;49.476;8.484;2022-11-03T11:55:41;100061.59;;;14.53;64.89
12949;BME280;6539;49.476;8.484;2022-11-03T12:00:59;100055.84;;;14.60;64.72
12949;BME280;6539;49.476;8.484;2022-11-03T12:03:40;100043.59;;;14.61;64.74
12949;BME280;6539;49.476;8.484;2022-11-03T12:06:11;100038.84;;;14.62;65.18
12949;BME280;6539;49.476;8.484;2022-11-03T12:08:37;100033.72;;;14.60;65.55
12949;BME280;6539;49.476;8.484;2022-11-03T12:11:05;100026.69;;;14.59;65.85
12949;BME280;6539;49.476;8.484;2022-11-03T12:13:48;100017.16;;;14.60;65.92
12949;BME280;6539;49.476;8.484;2022-11-03T12:16:36;100000.69;;;14.57;66.33
12949;BME280;6539;49.476;8.484;2022-11-03T12:19:37;100002.03;;;14.65;66.01
12949;BME280;6539;49.476;8.484;2022-11-03T12:22:11;100002.13;;;14.61;66.19
12949;BME280;6539;49.476;8.484;2022-11-03T12:24:51;99990.44;;;14.57;66.60
12949;BME280;6539;49.476;8.484;2022-11-03T12:27:19;99979.94;;;14.52;66.85
12949;BME280;6539;49.476;8.484;2022-11-03T12:30:14;99976.28;;;14.68;66.89
12949;BME280;6539;49.476;8.484;2022-11-03T12:32:40;99968.78;;;14.68;66.52
12949;BME280;6539;49.476;8.484;2022-11-03T12:35:08;99969.97;;;14.67;66.59
12949;BME280;6539;49.476;8.484;2022-11-03T12:37:36;99976.03;;;14.62;66.99
12949;BME280;6539;49.476;8.484;2022-11-03T12:40:03;99983.47;;;14.65;67.30
12949;BME280;6539;49.476;8.484;2022-11-03T12:42:29;99967.75;;;14.62;67.35
12949;BME280;6539;49.476;8.484;2022-11-03T12:44:55;99970.31;;;14.69;67.20
12949;BME280;6539;49.476;8.484;2022-11-03T12:47:23;99962.78;;;14.70;67.25
12949;BME280;6539;49.476;8.484;2022-11-03T12:49:49;99955.72;;;14.81;66.70
12949;BME280;6539;49.476;8.484;2022-11-03T12:52:14;99937.81;;;14.86;66.64
12949;BME280;6539;49.476;8.484;2022-11-03T12:54:43;99938.13;;;14.75;66.87
12949;BME280;6539;49.476;8.484;2022-11-03T12:57:11;99933.19;;;14.70;67.50
12949;BME280;6539;49.476;8.484;2022-11-03T12:59:37;99925.88;;;14.76;66.89
12949;BME280;6539;49.476;8.484;2022-11-03T13:02:03;99921.34;;;14.70;67.54
12949;BME280;6539;49.476;8.484;2022-11-03T13:04:34;99911.59;;;14.78;67.11
12949;BME280;6539;49.476;8.484;2022-11-03T13:06:59;99903.97;;;14.82;66.79
12949;BME280;6539;49.476;8.484;2022-11-03T13:09:26;99896.78;;;14.84;66.71
12949;BME280;6539;49.476;8.484;2022-11-03T13:11:54;99899.13;;;14.86;66.88
12949;BME280;6539;49.476;8.484;2022-11-03T13:14:41;99887.28;;;14.85;66.52
12949;BME280;6539;49.476;8.484;2022-11-03T13:17:11;99880.84;;;14.88;66.83
12949;BME280;6539;49.476;8.484;2022-11-03T13:19:42;99862.09;;;14.83;66.64
12949;BME280;6539;49.476;8.484;2022-11-03T13:22:08;99851.53;;;14.91;67.29
12949;BME280;6539;49.476;8.484;2022-11-03T13:24:34;99840.25;;;14.98;66.77
12949;BME280;6539;49.476;8.484;2022-11-03T13:27:00;99832.66;;;14.89;67.06
12949;BME280;6539;49.476;8.484;2022-11-03T13:29:28;99809.44;;;14.87;67.04
12949;BME280;6539;49.476;8.484;2022-11-03T13:31:56;99807.91;;;14.86;67.08
12949;BME280;6539;49.476;8.484;2022-11-03T13:34:22;99798.53;;;14.83;67.56
12949;BME280;6539;49.476;8.484;2022-11-03T13:36:50;99787.19;;;14.90;67.19
12949;BME280;6539;49.476;8.484;2022-11-03T13:39:16;99778.16;;;14.90;67.20
12949;BME280;6539;49.476;8.484;2022-11-03T13:41:43;99771.72;;;14.93;67.18
12949;BME280;6539;49.476;8.484;2022-11-03T13:44:09;99770.69;;;14.99;67.34
12949;BME280;6539;49.476;8.484;2022-11-03T13:46:37;99779.94;;;15.05;67.06
12949;BME280;6539;49.476;8.484;2022-11-03T13:49:03;99766.44;;;15.07;66.99
12949;BME280;6539;49.476;8.484;2022-11-03T13:51:31;99765.38;;;15.05;67.01
12949;BME280;6539;49.476;8.484;2022-11-03T13:53:57;99764.91;;;15.06;67.09
12949;BME280;6539;49.476;8.484;2022-11-03T13:56:25;99763.34;;;15.05;66.95
12949;BME280;6539;49.476;8.484;2022-11-03T13:58:53;99751.22;;;15.03;67.19
12949;BME280;6539;49.476;8.484;2022-11-03T14:01:20;99753.06;;;15.06;67.19
12949;BME280;6539;49.476;8.484;2022-11-03T14:03:48;99754.72;;;15.03;67.39
12949;BME280;6539;49.476;8.484;2022-11-03T14:06:17;99742.47;;;15.04;67.35
12949;BME280;6539;49.476;8.484;2022-11-03T14:08:43;99750.50;;;15.11;67.21
12949;BME280;6539;49.476;8.484;2022-11-03T14:11:11;99743.81;;;15.00;67.58
12949;BME280;6539;49.476;8.484;2022-11-03T14:13:55;99736.00;;;14.98;67.88
12949;BME280;6539;49.476;8.484;2022-11-03T14:16:23;99733.09;;;15.02;67.84
12949;BME280;6539;49.476;8.484;2022-11-03T14:18:49;99739.56;;;15.08;67.74
12949;BME280;6539;49.476;8.484;2022-11-03T14:21:15;99732.81;;;15.09;67.79
12949;BME280;6539;49.476;8.484;2022-11-03T14:23:48;99737.88;;;15.10;68.16
12949;BME280;6539;49.476;8.484;2022-11-03T14:26:13;99722.72;;;15.15;68.13
12949;BME280;6539;49.476;8.484;2022-11-03T14:28:41;99719.38;;;15.20;68.07
12949;BME280;6539;49.476;8.484;2022-11-03T14:31:10;99708.78;;;15.27;67.67